sensor_id;sensor_type;location;lat;lon;timestamp;pressure;altitude;pressure_sealevel;temperature;humidity
72612;BME280;60655;52.182;4.474;2022-09-30T00:00:51;100904.53;;;11.08;86.25
72612;BME280;60655;52.182;4.474;2022-09-30T00:02:52;100912.69;;;11.13;86.07
72612;BME280;60655;52.182;4.474;2022-09-30T00:04:53;100911.88;;;11.12;85.68
72612;BME280;60655;52.182;4.474;2022-09-30T00:06:54;100903.03;;;10.94;85.96
72612;BME280;60655;52.182;4.474;2022-09-30T00:08:55;100903.50;;;11.09;85.86
72612;BME280;60655;52.182;4.474;2022-09-30T00:11:03;100921.13;;;11.03;86.20
72612;BME280;60655;52.182;4.474;2022-09-30T00:13:04;100909.16;;;10.94;86.15
72612;BME280;60655;52.182;4.474;2022-09-30T00:15:05;100910.19;;;10.93;86.07
72612;BME280;60655;52.182;4.474;2022-09-30T00:17:06;100924.16;;;11.07;86.13
72612;BME280;60655;52.182;4.474;2022-09-30T00:19:09;100915.88;;;10.97;86.49
72612;BME280;60655;52.182;4.474;2022-09-30T00:21:11;100923.25;;;11.20;86.15
72612;BME280;60655;52.182;4.474;2022-09-30T00:23:13;100920.19;;;11.23;85.99
72612;BME280;60655;52.182;4.474;2022-09-30T00:25:14;100916.16;;;11.13;86.25
72612;BME280;60655;52.182;4.474;2022-09-30T00:27:16;100901.41;;;10.93;86.87
72612;BME280;60655;52.182;4.474;2022-09-30T00:29:18;100889.56;;;10.89;86.62
72612;BME280;60655;52.182;4.474;2022-09-30T00:31:21;100912.16;;;10.98;86.54
72612;BME280;60655;52.182;4.474;2022-09-30T00:33:22;100902.88;;;10.89;86.42
72612;BME280;60655;52.182;4.474;2022-09-30T00:35:23;100907.16;;;10.90;86.23
72612;BME280;60655;52.182;4.474;2022-09-30T00:37:25;100912.69;;;10.88;85.92
72612;BME280;60655;52.182;4.474;2022-09-30T00:39:26;100908.19;;;10.89;85.71
72612;BME280;60655;52.182;4.474;2022-09-30T00:41:28;100909.47;;;10.79;85.50
72612;BME280;60655;52.182;4.474;2022-09-30T00:43:47;100906.03;;;10.72;86.00
72612;BME280;60655;52.182;4.474;2022-09-30T00:45:55;100899.22;;;10.83;85.72
72612;BME280;60655;52.182;4.474;2022-09-30T00:48:14;100893.50;;;10.79;85.96
72612;BME280;60655;52.182;4.474;2022-09-30T00:50:20;100908.66;;;10.79;85.94
72612;BME280;60655;52.182;4.474;2022-09-30T00:52:22;100902.03;;;10.63;86.14
72612;BME280;60655;52.182;4.474;2022-09-30T00:54:28;100898.78;;;10.86;85.77
72612;BME280;60655;52.182;4.474;2022-09-30T00:56:33;100900.63;;;10.86;85.70
72612;BME280;60655;52.182;4.474;2022-09-30T00:58:53;100894.34;;;10.80;85.66
72612;BME280;60655;52.182;4.474;2022-09-30T01:00:56;100902.69;;;10.83;85.17
72612;BME280;60655;52.182;4.474;2022-09-30T01:03:01;100871.59;;;10.59;85.23
72612;BME280;60655;52.182;4.474;2022-09-30T01:05:02;100901.81;;;10.65;85.05
72612;BME280;60655;52.182;4.474;2022-09-30T01:07:05;100883.69;;;10.55;84.76
72612;BME280;60655;52.182;4.474;2022-09-30T01:09:07;100901.41;;;10.61;84.78
72612;BME280;60655;52.182;4.474;2022-09-30T01:11:08;100891.47;;;10.50;85.03
72612;BME280;60655;52.182;4.474;2022-09-30T01:13:09;100892.59;;;10.36;85.10
72612;BME280;60655;52.182;4.474;2022-09-30T01:15:11;100911.41;;;10.28;85.82
72612;BME280;60655;52.182;4.474;2022-09-30T01:22:39;100911.72;;;10.44;85.16
72612;BME280;60655;52.182;4.474;2022-09-30T01:34:47;100916.97;;;10.13;85.83
72612;BME280;60655;52.182;4.474;2022-09-30T01:39:01;100927.63;;;10.06;85.69
72612;BME280;60655;52.182;4.474;2022-09-30T01:41:09;100925.00;;;10.00;85.92
72612;BME280;60655;52.182;4.474;2022-09-30T01:43:48;100921.50;;;10.06;85.40
72612;BME280;60655;52.182;4.474;2022-09-30T01:46:19;100918.63;;;10.07;85.13
72612;BME280;60655;52.182;4.474;2022-09-30T01:48:24;100903.34;;;9.96;85.14
72612;BME280;60655;52.182;4.474;2022-09-30T01:50:35;100909.47;;;10.03;85.10
72612;BME280;60655;52.182;4.474;2022-09-30T01:52:44;100905.59;;;9.99;84.81
72612;BME280;60655;52.182;4.474;2022-09-30T01:55:06;100895.88;;;9.80;84.81
72612;BME280;60655;52.182;4.474;2022-09-30T01:59:22;100897.50;;;9.81;84.94
72612;BME280;60655;52.182;4.474;2022-09-30T02:01:28;100897.72;;;9.79;84.84
72612;BME280;60655;52.182;4.474;2022-09-30T02:03:34;100899.38;;;9.74;85.36
72612;BME280;60655;52.182;4.474;2022-09-30T02:07:55;100898.41;;;9.48;85.71
72612;BME280;60655;52.182;4.474;2022-09-30T02:10:21;100900.81;;;9.57;85.81
72612;BME280;60655;52.182;4.474;2022-09-30T02:12:26;100897.75;;;9.66;85.54
72612;BME280;60655;52.182;4.474;2022-09-30T02:14:36;100907.75;;;9.58;85.87
72612;BME280;60655;52.182;4.474;2022-09-30T02:16:58;100908.97;;;9.55;86.57
72612;BME280;60655;52.182;4.474;2022-09-30T02:21:07;100909.19;;;9.54;86.51
72612;BME280;60655;52.182;4.474;2022-09-30T02:23:17;100905.34;;;9.50;85.81
72612;BME280;60655;52.182;4.474;2022-09-30T02:25:37;100909.00;;;9.48;85.41
72612;BME280;60655;52.182;4.474;2022-09-30T02:27:47;100916.16;;;9.48;85.87
72612;BME280;60655;52.182;4.474;2022-09-30T02:29:54;100888.63;;;9.36;84.99
72612;BME280;60655;52.182;4.474;2022-09-30T02:32:01;100922.06;;;9.43;85.55
72612;BME280;60655;52.182;4.474;2022-09-30T02:36:30;100910.19;;;9.59;84.96
72612;BME280;60655;52.182;4.474;2022-09-30T02:38:39;100926.50;;;9.63;84.72
72612;BME280;60655;52.182;4.474;2022-09-30T02:40:49;100925.53;;;9.51;85.12
72612;BME280;60655;52.182;4.474;2022-09-30T02:42:51;100918.59;;;9.30;85.96
72612;BME280;60655;52.182;4.474;2022-09-30T02:44:56;100935.13;;;9.52;85.81
72612;BME280;60655;52.182;4.474;2022-09-30T02:49:16;100925.53;;;9.51;85.27
72612;BME280;60655;52.182;4.474;2022-09-30T02:56:43;100919.78;;;9.54;85.29
72612;BME280;60655;52.182;4.474;2022-09-30T02:58:49;100928.81;;;9.39;85.09
72612;BME280;60655;52.182;4.474;2022-09-30T03:00:52;100914.72;;;9.32;85.70
72612;BME280;60655;52.182;4.474;2022-09-30T03:02:58;100921.88;;;9.45;85.14
72612;BME280;60655;52.182;4.474;2022-09-30T03:05:02;100928.81;;;9.46;85.24
72612;BME280;60655;52.182;4.474;2022-09-30T03:07:03;100929.63;;;9.33;86.35
72612;BME280;60655;52.182;4.474;2022-09-30T03:09:04;100922.31;;;9.22;86.31
72612;BME280;60655;52.182;4.474;2022-09-30T03:11:06;100929.22;;;9.30;86.29
72612;BME280;60655;52.182;4.474;2022-09-30T03:23:10;100935.34;;;9.37;85.44
72612;BME280;60655;52.182;4.474;2022-09-30T03:32:21;100949.63;;;9.23;85.57
72612;BME280;60655;52.182;4.474;2022-09-30T03:34:54;100960.81;;;9.25;86.22
72612;BME280;60655;52.182;4.474;2022-09-30T03:37:29;100966.72;;;9.33;86.55
72612;BME280;60655;52.182;4.474;2022-09-30T03:39:39;100960.00;;;9.31;86.39
72612;BME280;60655;52.182;4.474;2022-09-30T03:41:48;100962.88;;;9.36;85.96
72612;BME280;60655;52.182;4.474;2022-09-30T03:44:11;100957.16;;;9.19;85.66
72612;BME280;60655;52.182;4.474;2022-09-30T03:48:32;100959.59;;;9.14;85.51
72612;BME280;60655;52.182;4.474;2022-09-30T03:50:35;100956.53;;;9.10;85.00
72612;BME280;60655;52.182;4.474;2022-09-30T03:52:38;100957.78;;;9.21;85.38
72612;BME280;60655;52.182;4.474;2022-09-30T03:54:53;100961.44;;;9.20;85.58
72612;BME280;60655;52.182;4.474;2022-09-30T03:56:55;100953.91;;;9.17;85.54
72612;BME280;60655;52.182;4.474;2022-09-30T03:58:56;100960.63;;;9.13;85.66
72612;BME280;60655;52.182;4.474;2022-09-30T04:00:57;100954.53;;;9.19;85.85
72612;BME280;60655;52.182;4.474;2022-09-30T04:02:58;100958.97;;;9.25;86.12
72612;BME280;60655;52.182;4.474;2022-09-30T04:04:59;100958.78;;;9.33;85.68
72612;BME280;60655;52.182;4.474;2022-09-30T04:07:00;100961.44;;;9.27;85.47
72612;BME280;60655;52.182;4.474;2022-09-30T04:09:02;100951.88;;;9.19;85.12
72612;BME280;60655;52.182;4.474;2022-09-30T04:11:03;100943.69;;;9.07;85.91
72612;BME280;60655;52.182;4.474;2022-09-30T04:13:05;100963.28;;;9.20;86.02
72612;BME280;60655;52.182;4.474;2022-09-30T04:15:06;100968.19;;;9.23;86.08
72612;BME280;60655;52.182;4.474;2022-09-30T04:17:08;100965.28;;;9.24;85.95
72612;BME280;60655;52.182;4.474;2022-09-30T04:19:09;100973.88;;;9.20;85.94
72612;BME280;60655;52.182;4.474;2022-09-30T04:21:11;100973.47;;;9.29;86.15
72612;BME280;60655;52.182;4.474;2022-09-30T04:23:13;100973.06;;;9.06;86.07
72612;BME280;60655;52.182;4.474;2022-09-30T04:25:14;100974.47;;;9.08;86.04
72612;BME280;60655;52.182;4.474;2022-09-30T04:27:15;100972.03;;;9.13;86.07
72612;BME280;60655;52.182;4.474;2022-09-30T04:29:16;100983.06;;;9.10;86.12
72612;BME280;60655;52.182;4.474;2022-09-30T04:31:17;100986.53;;;9.18;86.27
72612;BME280;60655;52.182;4.474;2022-09-30T04:33:20;100979.38;;;9.25;86.28
72612;BME280;60655;52.182;4.474;2022-09-30T04:35:21;100982.44;;;9.28;86.21
72612;BME280;60655;52.182;4.474;2022-09-30T04:37:23;100977.16;;;9.22;86.84
72612;BME280;60655;52.182;4.474;2022-09-30T04:39:24;100978.56;;;9.37;86.73
72612;BME280;60655;52.182;4.474;2022-09-30T04:41:25;100981.84;;;9.46;87.34
72612;BME280;60655;52.182;4.474;2022-09-30T04:43:26;100984.66;;;9.58;87.63
72612;BME280;60655;52.182;4.474;2022-09-30T04:45:28;100993.63;;;9.63;87.45
72612;BME280;60655;52.182;4.474;2022-09-30T04:47:29;100975.91;;;9.51;86.48
72612;BME280;60655;52.182;4.474;2022-09-30T04:49:31;100988.75;;;9.60;87.20
72612;BME280;60655;52.182;4.474;2022-09-30T04:51:32;100993.03;;;9.74;87.04
72612;BME280;60655;52.182;4.474;2022-09-30T04:53:32;100990.78;;;9.65;87.60
72612;BME280;60655;52.182;4.474;2022-09-30T04:55:34;100987.53;;;9.63;87.37
72612;BME280;60655;52.182;4.474;2022-09-30T04:57:35;100987.72;;;9.74;88.04
72612;BME280;60655;52.182;4.474;2022-09-30T04:59:36;100996.25;;;9.83;88.11
72612;BME280;60655;52.182;4.474;2022-09-30T05:01:37;100986.44;;;9.90;87.93
72612;BME280;60655;52.182;4.474;2022-09-30T05:03:40;100992.56;;;9.97;87.62
72612;BME280;60655;52.182;4.474;2022-09-30T05:05:43;100983.59;;;9.98;87.59
72612;BME280;60655;52.182;4.474;2022-09-30T05:07:47;100999.88;;;10.22;87.41
72612;BME280;60655;52.182;4.474;2022-09-30T05:09:48;100994.97;;;10.12;87.39
72612;BME280;60655;52.182;4.474;2022-09-30T05:11:49;100989.50;;;10.00;87.44
72612;BME280;60655;52.182;4.474;2022-09-30T05:13:50;100970.75;;;9.89;87.27
72612;BME280;60655;52.182;4.474;2022-09-30T05:15:51;100994.41;;;10.03;87.45
72612;BME280;60655;52.182;4.474;2022-09-30T05:17:52;100999.69;;;10.03;87.78
72612;BME280;60655;52.182;4.474;2022-09-30T05:19:53;101000.47;;;10.24;87.30
72612;BME280;60655;52.182;4.474;2022-09-30T05:21:54;100961.72;;;10.09;87.32
72612;BME280;60655;52.182;4.474;2022-09-30T05:23:55;100996.97;;;10.36;87.05
72612;BME280;60655;52.182;4.474;2022-09-30T05:25:57;100987.97;;;10.37;86.89
72612;BME280;60655;52.182;4.474;2022-09-30T05:27:59;100970.03;;;10.33;86.65
72612;BME280;60655;52.182;4.474;2022-09-30T05:30:00;101006.91;;;10.47;86.74
72612;BME280;60655;52.182;4.474;2022-09-30T05:32:01;101005.03;;;10.61;86.69
72612;BME280;60655;52.182;4.474;2022-09-30T05:34:02;100993.78;;;10.59;86.49
72612;BME280;60655;52.182;4.474;2022-09-30T05:36:06;100993.16;;;10.64;86.45
72612;BME280;60655;52.182;4.474;2022-09-30T05:38:08;100990.66;;;10.69;86.18
72612;BME280;60655;52.182;4.474;2022-09-30T05:40:09;100995.97;;;10.69;86.38
72612;BME280;60655;52.182;4.474;2022-09-30T05:42:11;100985.59;;;10.67;86.43
72612;BME280;60655;52.182;4.474;2022-09-30T05:44:11;100987.38;;;10.73;86.47
72612;BME280;60655;52.182;4.474;2022-09-30T05:46:14;100992.66;;;10.80;85.96
72612;BME280;60655;52.182;4.474;2022-09-30T05:48:15;100991.59;;;10.88;85.84
72612;BME280;60655;52.182;4.474;2022-09-30T05:50:16;100990.78;;;10.87;85.72
72612;BME280;60655;52.182;4.474;2022-09-30T05:52:17;100957.38;;;10.66;85.94
72612;BME280;60655;52.182;4.474;2022-09-30T05:54:19;100992.88;;;10.78;86.43
72612;BME280;60655;52.182;4.474;2022-09-30T05:56:20;100990.59;;;10.82;86.68
72612;BME280;60655;52.182;4.474;2022-09-30T05:58:22;100986.28;;;10.88;86.09
72612;BME280;60655;52.182;4.474;2022-09-30T06:00:24;100996.91;;;10.88;86.62
72612;BME280;60655;52.182;4.474;2022-09-30T06:02:25;100970.63;;;10.73;86.29
72612;BME280;60655;52.182;4.474;2022-09-30T06:04:26;101006.25;;;10.97;86.45
72612;BME280;60655;52.182;4.474;2022-09-30T06:06:27;101011.69;;;11.08;86.54
72612;BME280;60655;52.182;4.474;2022-09-30T06:08:29;101013.75;;;11.06;86.27
72612;BME280;60655;52.182;4.474;2022-09-30T06:10:33;101012.28;;;11.10;86.47
72612;BME280;60655;52.182;4.474;2022-09-30T06:12:34;101018.59;;;11.16;86.45
72612;BME280;60655;52.182;4.474;2022-09-30T06:14:37;101006.75;;;11.12;86.59
72612;BME280;60655;52.182;4.474;2022-09-30T06:16:38;101018.44;;;11.11;87.26
72612;BME280;60655;52.182;4.474;2022-09-30T06:18:39;101020.31;;;11.04;87.62
72612;BME280;60655;52.182;4.474;2022-09-30T06:20:41;101027.59;;;11.15;87.59
72612;BME280;60655;52.182;4.474;2022-09-30T06:22:42;101040.06;;;11.21;87.43
72612;BME280;60655;52.182;4.474;2022-09-30T06:24:44;101035.19;;;11.11;87.63
72612;BME280;60655;52.182;4.474;2022-09-30T06:26:45;101034.84;;;11.01;88.29
72612;BME280;60655;52.182;4.474;2022-09-30T06:28:46;101039.19;;;10.96;88.93
72612;BME280;60655;52.182;4.474;2022-09-30T06:30:47;101043.09;;;10.93;89.43
72612;BME280;60655;52.182;4.474;2022-09-30T06:32:48;101044.41;;;11.09;88.76
72612;BME280;60655;52.182;4.474;2022-09-30T06:34:49;101051.88;;;10.94;89.57
72612;BME280;60655;52.182;4.474;2022-09-30T06:36:50;101048.53;;;11.05;89.40
72612;BME280;60655;52.182;4.474;2022-09-30T06:38:51;101021.44;;;10.90;89.34
72612;BME280;60655;52.182;4.474;2022-09-30T06:40:54;101050.56;;;11.03;89.67
72612;BME280;60655;52.182;4.474;2022-09-30T06:42:59;101043.81;;;11.07;89.98
72612;BME280;60655;52.182;4.474;2022-09-30T06:45:01;101046.44;;;11.13;89.47
72612;BME280;60655;52.182;4.474;2022-09-30T06:47:02;101027.25;;;11.05;89.84
72612;BME280;60655;52.182;4.474;2022-09-30T06:49:03;101047.03;;;11.15;89.66
72612;BME280;60655;52.182;4.474;2022-09-30T06:51:05;101046.41;;;11.20;89.63
72612;BME280;60655;52.182;4.474;2022-09-30T06:53:11;101034.78;;;11.14;89.80
72612;BME280;60655;52.182;4.474;2022-09-30T06:55:13;101050.63;;;11.28;89.30
72612;BME280;60655;52.182;4.474;2022-09-30T06:57:14;101040.66;;;11.23;89.34
72612;BME280;60655;52.182;4.474;2022-09-30T06:59:14;101034.84;;;11.01;89.97
72612;BME280;60655;52.182;4.474;2022-09-30T07:01:16;101055.25;;;11.07;91.07
72612;BME280;60655;52.182;4.474;2022-09-30T07:03:25;101015.00;;;11.04;90.32
72612;BME280;60655;52.182;4.474;2022-09-30T07:05:28;101032.56;;;11.05;91.24
72612;BME280;60655;52.182;4.474;2022-09-30T07:07:29;101045.16;;;11.23;90.80
72612;BME280;60655;52.182;4.474;2022-09-30T07:09:34;101033.34;;;11.12;91.19
72612;BME280;60655;52.182;4.474;2022-09-30T07:11:35;101035.78;;;11.13;91.25
72612;BME280;60655;52.182;4.474;2022-09-30T07:13:40;101037.84;;;11.11;91.96
72612;BME280;60655;52.182;4.474;2022-09-30T07:15:43;101040.50;;;11.11;92.02
72612;BME280;60655;52.182;4.474;2022-09-30T07:17:49;101029.66;;;11.13;92.10
72612;BME280;60655;52.182;4.474;2022-09-30T07:19:50;101030.06;;;11.16;91.95
72612;BME280;60655;52.182;4.474;2022-09-30T07:21:51;101038.13;;;11.28;91.29
72612;BME280;60655;52.182;4.474;2022-09-30T07:23:52;101001.88;;;11.09;91.48
72612;BME280;60655;52.182;4.474;2022-09-30T07:25:56;101024.53;;;11.18;91.36
72612;BME280;60655;52.182;4.474;2022-09-30T07:27:58;101025.44;;;11.30;91.04
72612;BME280;60655;52.182;4.474;2022-09-30T07:29:59;101039.84;;;11.47;89.82
72612;BME280;60655;52.182;4.474;2022-09-30T07:32:02;101039.69;;;11.42;90.17
72612;BME280;60655;52.182;4.474;2022-09-30T07:34:06;101029.44;;;11.46;89.68
72612;BME280;60655;52.182;4.474;2022-09-30T07:36:08;101021.91;;;11.36;90.56
72612;BME280;60655;52.182;4.474;2022-09-30T07:38:09;101034.97;;;11.44;90.96
72612;BME280;60655;52.182;4.474;2022-09-30T07:40:10;101034.16;;;11.44;91.04
72612;BME280;60655;52.182;4.474;2022-09-30T07:42:13;101034.09;;;11.50;90.96
72612;BME280;60655;52.182;4.474;2022-09-30T07:44:15;101022.25;;;11.46;90.89
72612;BME280;60655;52.182;4.474;2022-09-30T07:46:19;101028.22;;;11.42;91.00
72612;BME280;60655;52.182;4.474;2022-09-30T07:48:21;101027.19;;;11.43;91.19
72612;BME280;60655;52.182;4.474;2022-09-30T07:50:45;101037.03;;;11.42;92.05
72612;BME280;60655;52.182;4.474;2022-09-30T07:52:46;101028.19;;;11.48;91.75
72612;BME280;60655;52.182;4.474;2022-09-30T07:54:47;101037.53;;;11.82;89.82
72612;BME280;60655;52.182;4.474;2022-09-30T07:56:49;101030.81;;;11.80;89.59
72612;BME280;60655;52.182;4.474;2022-09-30T07:58:57;101030.81;;;11.73;90.23
72612;BME280;60655;52.182;4.474;2022-09-30T08:00:59;101029.56;;;11.76;90.79
72612;BME280;60655;52.182;4.474;2022-09-30T08:03:00;101034.53;;;11.72;90.43
72612;BME280;60655;52.182;4.474;2022-09-30T08:05:02;101041.03;;;11.83;90.07
72612;BME280;60655;52.182;4.474;2022-09-30T08:07:03;101031.25;;;11.77;90.73
72612;BME280;60655;52.182;4.474;2022-09-30T08:09:05;101026.22;;;11.62;92.61
72612;BME280;60655;52.182;4.474;2022-09-30T08:11:06;101030.50;;;11.63;92.95
72612;BME280;60655;52.182;4.474;2022-09-30T08:13:08;101029.84;;;11.68;92.85
72612;BME280;60655;52.182;4.474;2022-09-30T08:15:09;101020.44;;;11.65;93.53
72612;BME280;60655;52.182;4.474;2022-09-30T08:17:10;101031.84;;;11.72;93.30
72612;BME280;60655;52.182;4.474;2022-09-30T08:19:14;101007.19;;;11.59;93.70
72612;BME280;60655;52.182;4.474;2022-09-30T08:21:16;101021.19;;;11.79;93.98
72612;BME280;60655;52.182;4.474;2022-09-30T08:23:17;101021.03;;;11.92;93.66
72612;BME280;60655;52.182;4.474;2022-09-30T08:25:21;101023.00;;;12.03;92.85
72612;BME280;60655;52.182;4.474;2022-09-30T08:27:22;101033.34;;;12.11;92.36
72612;BME280;60655;52.182;4.474;2022-09-30T08:29:23;101035.56;;;12.14;92.85
72612;BME280;60655;52.182;4.474;2022-09-30T08:31:24;101034.81;;;12.26;92.56
72612;BME280;60655;52.182;4.474;2022-09-30T08:33:26;101027.50;;;12.39;92.41
72612;BME280;60655;52.182;4.474;2022-09-30T08:35:27;101024.66;;;12.52;92.34
72612;BME280;60655;52.182;4.474;2022-09-30T08:37:28;101021.34;;;12.57;91.77
72612;BME280;60655;52.182;4.474;2022-09-30T08:39:29;101028.69;;;12.73;91.63
72612;BME280;60655;52.182;4.474;2022-09-30T08:42:02;101032.28;;;12.67;92.00
72612;BME280;60655;52.182;4.474;2022-09-30T08:44:22;101029.13;;;12.89;91.36
72612;BME280;60655;52.182;4.474;2022-09-30T08:48:38;101018.16;;;12.97;93.03
72612;BME280;60655;52.182;4.474;2022-09-30T08:53:03;101018.16;;;13.08;92.62
72612;BME280;60655;52.182;4.474;2022-09-30T08:55:06;101002.69;;;13.17;93.53
72612;BME280;60655;52.182;4.474;2022-09-30T08:57:09;101006.88;;;13.36;93.31
72612;BME280;60655;52.182;4.474;2022-09-30T09:01:28;101016.75;;;13.59;92.08
72612;BME280;60655;52.182;4.474;2022-09-30T09:03:32;101012.59;;;13.63;91.93
72612;BME280;60655;52.182;4.474;2022-09-30T09:10:36;101016.06;;;13.64;87.38
72612;BME280;60655;52.182;4.474;2022-09-30T09:17:19;101011.78;;;13.86;88.11
72612;BME280;60655;52.182;4.474;2022-09-30T09:19:25;101017.91;;;13.86;85.89
72612;BME280;60655;52.182;4.474;2022-09-30T09:23:42;101001.09;;;13.74;83.52
72612;BME280;60655;52.182;4.474;2022-09-30T09:25:44;101017.13;;;13.98;84.40
72612;BME280;60655;52.182;4.474;2022-09-30T09:27:54;101022.22;;;14.11;84.07
72612;BME280;60655;52.182;4.474;2022-09-30T09:30:17;101024.44;;;14.02;84.86
72612;BME280;60655;52.182;4.474;2022-09-30T09:32:19;101027.91;;;14.14;86.07
72612;BME280;60655;52.182;4.474;2022-09-30T09:34:23;101036.81;;;14.20;83.69
72612;BME280;60655;52.182;4.474;2022-09-30T09:46:02;101012.69;;;14.03;81.14
72612;BME280;60655;52.182;4.474;2022-09-30T09:48:08;101027.22;;;14.07;81.31
72612;BME280;60655;52.182;4.474;2022-09-30T09:53:12;101010.25;;;14.13;82.63
72612;BME280;60655;52.182;4.474;2022-09-30T09:55:20;101018.13;;;14.20;82.16
72612;BME280;60655;52.182;4.474;2022-09-30T09:57:23;101018.28;;;14.13;82.34
72612;BME280;60655;52.182;4.474;2022-09-30T10:02:29;101004.09;;;14.13;82.50
72612;BME280;60655;52.182;4.474;2022-09-30T10:04:31;101001.16;;;14.26;80.00
72612;BME280;60655;52.182;4.474;2022-09-30T10:08:55;101007.25;;;14.50;81.31
72612;BME280;60655;52.182;4.474;2022-09-30T10:11:00;101011.88;;;14.66;76.73
72612;BME280;60655;52.182;4.474;2022-09-30T10:13:03;101008.31;;;14.77;79.50
72612;BME280;60655;52.182;4.474;2022-09-30T10:19:28;101010.53;;;14.80;81.40
72612;BME280;60655;52.182;4.474;2022-09-30T10:21:30;101008.53;;;14.88;80.13
72612;BME280;60655;52.182;4.474;2022-09-30T10:23:39;100999.88;;;15.14;75.03
72612;BME280;60655;52.182;4.474;2022-09-30T10:25:56;100999.31;;;15.12;75.55
72612;BME280;60655;52.182;4.474;2022-09-30T10:28:01;100984.41;;;14.99;74.04
72612;BME280;60655;52.182;4.474;2022-09-30T10:30:02;101003.03;;;15.11;74.29
72612;BME280;60655;52.182;4.474;2022-09-30T10:32:08;101003.56;;;15.25;77.01
72612;BME280;60655;52.182;4.474;2022-09-30T10:36:33;100995.19;;;15.21;73.64
72612;BME280;60655;52.182;4.474;2022-09-30T10:38:34;101009.78;;;15.47;74.24
72612;BME280;60655;52.182;4.474;2022-09-30T10:40:36;101002.31;;;15.49;71.15
72612;BME280;60655;52.182;4.474;2022-09-30T10:42:39;101006.94;;;15.37;72.00
72612;BME280;60655;52.182;4.474;2022-09-30T10:44:47;100991.47;;;15.22;73.59
72612;BME280;60655;52.182;4.474;2022-09-30T10:46:51;100997.72;;;15.28;72.50
72612;BME280;60655;52.182;4.474;2022-09-30T10:48:57;101001.28;;;15.50;74.88
72612;BME280;60655;52.182;4.474;2022-09-30T10:51:01;100980.09;;;15.32;73.21
72612;BME280;60655;52.182;4.474;2022-09-30T10:53:19;100988.47;;;15.18;73.16
72612;BME280;60655;52.182;4.474;2022-09-30T10:57:28;100975.63;;;15.04;73.03
72612;BME280;60655;52.182;4.474;2022-09-30T10:59:36;100994.34;;;15.04;73.35
72612;BME280;60655;52.182;4.474;2022-09-30T11:01:55;100989.31;;;14.91;74.06
72612;BME280;60655;52.182;4.474;2022-09-30T11:04:07;100995.16;;;14.88;73.84
72612;BME280;60655;52.182;4.474;2022-09-30T11:06:12;100990.38;;;14.90;74.03
72612;BME280;60655;52.182;4.474;2022-09-30T11:08:29;100990.13;;;14.91;75.65
72612;BME280;60655;52.182;4.474;2022-09-30T11:15:22;100983.34;;;15.67;68.19
72612;BME280;60655;52.182;4.474;2022-09-30T11:17:41;100982.75;;;15.82;70.01
72612;BME280;60655;52.182;4.474;2022-09-30T11:20:13;100981.72;;;16.05;67.12
72612;BME280;60655;52.182;4.474;2022-09-30T11:24:39;100978.31;;;16.09;69.55
72612;BME280;60655;52.182;4.474;2022-09-30T11:27:05;100969.38;;;16.26;66.22
72612;BME280;60655;52.182;4.474;2022-09-30T11:29:21;100965.56;;;16.43;66.69
72612;BME280;60655;52.182;4.474;2022-09-30T11:31:40;100958.03;;;16.40;66.43
72612;BME280;60655;52.182;4.474;2022-09-30T11:34:09;100965.38;;;16.28;66.46
72612;BME280;60655;52.182;4.474;2022-09-30T11:38:50;100953.72;;;16.17;67.99
72612;BME280;60655;52.182;4.474;2022-09-30T11:41:17;100952.97;;;16.44;68.94
72612;BME280;60655;52.182;4.474;2022-09-30T11:48:23;100940.91;;;16.46;64.02
72612;BME280;60655;52.182;4.474;2022-09-30T11:55:39;100947.81;;;16.15;65.70
72612;BME280;60655;52.182;4.474;2022-09-30T11:58:00;100947.31;;;15.97;65.88
72612;BME280;60655;52.182;4.474;2022-09-30T12:00:20;100949.13;;;16.13;67.49
72612;BME280;60655;52.182;4.474;2022-09-30T12:02:29;100940.00;;;15.92;68.35
72612;BME280;60655;52.182;4.474;2022-09-30T12:04:39;100954.03;;;15.99;69.46
72612;BME280;60655;52.182;4.474;2022-09-30T12:07:21;100943.63;;;16.25;66.84
72612;BME280;60655;52.182;4.474;2022-09-30T12:09:36;100949.41;;;16.38;66.08
72612;BME280;60655;52.182;4.474;2022-09-30T12:13:51;100944.38;;;16.42;64.36
72612;BME280;60655;52.182;4.474;2022-09-30T12:15:56;100939.06;;;16.25;65.31
72612;BME280;60655;52.182;4.474;2022-09-30T12:18:28;100940.38;;;16.23;65.55
72612;BME280;60655;52.182;4.474;2022-09-30T12:20:36;100924.03;;;16.24;66.18
72612;BME280;60655;52.182;4.474;2022-09-30T12:22:38;100932.59;;;16.43;65.32
72612;BME280;60655;52.182;4.474;2022-09-30T12:24:42;100926.28;;;16.59;65.91
72612;BME280;60655;52.182;4.474;2022-09-30T12:26:47;100926.69;;;16.68;64.14
72612;BME280;60655;52.182;4.474;2022-09-30T12:28:53;100925.78;;;16.62;64.28
72612;BME280;60655;52.182;4.474;2022-09-30T12:34:07;100928.47;;;16.62;65.89
72612;BME280;60655;52.182;4.474;2022-09-30T12:36:32;100923.19;;;16.67;66.45
72612;BME280;60655;52.182;4.474;2022-09-30T12:40:55;100909.34;;;16.53;65.10
72612;BME280;60655;52.182;4.474;2022-09-30T12:43:14;100907.22;;;16.55;63.82
72612;BME280;60655;52.182;4.474;2022-09-30T12:47:51;100913.28;;;16.68;64.74
72612;BME280;60655;52.182;4.474;2022-09-30T12:49:55;100910.66;;;16.78;65.23
72612;BME280;60655;52.182;4.474;2022-09-30T12:52:13;100905.03;;;16.74;65.04
72612;BME280;60655;52.182;4.474;2022-09-30T12:54:23;100897.75;;;16.48;63.99
72612;BME280;60655;52.182;4.474;2022-09-30T12:56:33;100883.00;;;16.45;64.12
72612;BME280;60655;52.182;4.474;2022-09-30T12:58:44;100901.53;;;16.52;63.54
72612;BME280;60655;52.182;4.474;2022-09-30T13:01:07;100892.44;;;16.53;61.80
72612;BME280;60655;52.182;4.474;2022-09-30T13:03:16;100888.81;;;16.37;64.08
72612;BME280;60655;52.182;4.474;2022-09-30T13:07:32;100866.84;;;16.13;63.67
72612;BME280;60655;52.182;4.474;2022-09-30T13:14:01;100875.75;;;16.19;66.14